sensor_id;sensor_type;location;lat;lon;timestamp;temperature;humidity
10583;DHT22;33679;51.218;6.786;2024-02-23T00:00:25;10.00;99.90
10583;DHT22;33679;51.218;6.786;2024-02-23T00:02:57;10.00;99.90
10583;DHT22;33679;51.218;6.786;2024-02-23T00:05:30;10.00;99.90
10583;DHT22;33679;51.218;6.786;2024-02-23T00:08:03;10.00;99.90
10583;DHT22;33679;51.218;6.786;2024-02-23T00:10:35;10.10;99.90
10583;DHT22;33679;51.218;6.786;2024-02-23T00:13:09;10.10;99.90
10583;DHT22;33679;51.218;6.786;2024-02-23T00:15:43;10.10;99.90
10583;DHT22;33679;51.218;6.786;2024-02-23T00:18:16;10.10;99.90
10583;DHT22;33679;51.218;6.786;2024-02-23T00:20:51;10.00;99.90
10583;DHT22;33679;51.218;6.786;2024-02-23T00:23:23;10.00;99.90
10583;DHT22;33679;51.218;6.786;2024-02-23T00:25:55;9.90;99.90
10583;DHT22;33679;51.218;6.786;2024-02-23T00:28:29;9.90;99.90
10583;DHT22;33679;51.218;6.786;2024-02-23T00:31:01;9.80;99.90
10583;DHT22;33679;51.218;6.786;2024-02-23T00:33:35;9.80;99.90
10583;DHT22;33679;51.218;6.786;2024-02-23T00:36:08;9.80;99.90
10583;DHT22;33679;51.218;6.786;2024-02-23T00:38:41;9.70;99.90
10583;DHT22;33679;51.218;6.786;2024-02-23T00:41:13;9.70;99.90
10583;DHT22;33679;51.218;6.786;2024-02-23T00:43:46;9.60;99.90
10583;DHT22;33679;51.218;6.786;2024-02-23T00:46:19;9.60;99.90
10583;DHT22;33679;51.218;6.786;2024-02-23T00:48:54;9.60;99.90
10583;DHT22;33679;51.218;6.786;2024-02-23T00:51:26;9.60;99.90
10583;DHT22;33679;51.218;6.786;2024-02-23T00:53:59;9.60;99.90
10583;DHT22;33679;51.218;6.786;2024-02-23T00:56:32;9.60;99.90
10583;DHT22;33679;51.218;6.786;2024-02-23T00:59:06;9.60;99.90
10583;DHT22;33679;51.218;6.786;2024-02-23T01:01:38;9.50;99.90
10583;DHT22;33679;51.218;6.786;2024-02-23T01:04:11;9.50;99.90
10583;DHT22;33679;51.218;6.786;2024-02-23T01:06:43;9.60;99.90
10583;DHT22;33679;51.218;6.786;2024-02-23T01:09:15;9.60;99.90
10583;DHT22;33679;51.218;6.786;2024-02-23T01:11:51;9.60;99.90
10583;DHT22;33679;51.218;6.786;2024-02-23T01:14:25;9.60;99.90
10583;DHT22;33679;51.218;6.786;2024-02-23T01:16:58;9.60;99.90
10583;DHT22;33679;51.218;6.786;2024-02-23T01:19:30;9.60;99.90
10583;DHT22;33679;51.218;6.786;2024-02-23T01:22:02;9.70;99.90
10583;DHT22;33679;51.218;6.786;2024-02-23T01:24:35;9.70;99.90
10583;DHT22;33679;51.218;6.786;2024-02-23T01:27:08;9.70;99.90
10583;DHT22;33679;51.218;6.786;2024-02-23T01:29:42;9.70;99.90
10583;DHT22;33679;51.218;6.786;2024-02-23T01:32:14;9.70;99.90
10583;DHT22;33679;51.218;6.786;2024-02-23T01:34:47;9.70;99.90
10583;DHT22;33679;51.218;6.786;2024-02-23T01:37:20;9.70;99.90
10583;DHT22;33679;51.218;6.786;2024-02-23T01:39:56;9.60;99.90
10583;DHT22;33679;51.218;6.786;2024-02-23T01:42:32;9.50;99.90
10583;DHT22;33679;51.218;6.786;2024-02-23T01:45:07;9.60;99.90
10583;DHT22;33679;51.218;6.786;2024-02-23T01:47:39;9.50;99.90
10583;DHT22;33679;51.218;6.786;2024-02-23T01:50:12;9.50;99.90
10583;DHT22;33679;51.218;6.786;2024-02-23T01:52:45;9.50;99.90
10583;DHT22;33679;51.218;6.786;2024-02-23T01:55:18;9.60;99.90
10583;DHT22;33679;51.218;6.786;2024-02-23T01:57:50;9.60;99.90
10583;DHT22;33679;51.218;6.786;2024-02-23T02:00:25;9.60;99.90
10583;DHT22;33679;51.218;6.786;2024-02-23T02:02:59;9.60;99.90
10583;DHT22;33679;51.218;6.786;2024-02-23T02:05:32;9.60;99.90
10583;DHT22;33679;51.218;6.786;2024-02-23T02:08:05;9.50;99.90
10583;DHT22;33679;51.218;6.786;2024-02-23T02:10:37;9.50;99.90
10583;DHT22;33679;51.218;6.786;2024-02-23T02:13:11;9.50;99.90
10583;DHT22;33679;51.218;6.786;2024-02-23T02:15:45;9.50;99.90
10583;DHT22;33679;51.218;6.786;2024-02-23T02:18:17;9.50;99.90
10583;DHT22;33679;51.218;6.786;2024-02-23T02:20:53;9.40;99.90
10583;DHT22;33679;51.218;6.786;2024-02-23T02:23:27;9.40;99.90
10583;DHT22;33679;51.218;6.786;2024-02-23T02:26:01;9.30;99.90
10583;DHT22;33679;51.218;6.786;2024-02-23T02:28:35;9.40;99.90
10583;DHT22;33679;51.218;6.786;2024-02-23T02:31:08;9.40;99.90
10583;DHT22;33679;51.218;6.786;2024-02-23T02:33:41;9.40;99.90
10583;DHT22;33679;51.218;6.786;2024-02-23T02:36:13;9.40;99.90
10583;DHT22;33679;51.218;6.786;2024-02-23T02:38:45;9.40;99.90
10583;DHT22;33679;51.218;6.786;2024-02-23T02:41:19;9.30;99.90
10583;DHT22;33679;51.218;6.786;2024-02-23T02:43:51;9.30;99.90
10583;DHT22;33679;51.218;6.786;2024-02-23T02:46:25;9.30;99.90
10583;DHT22;33679;51.218;6.786;2024-02-23T02:48:57;9.30;99.90
10583;DHT22;33679;51.218;6.786;2024-02-23T02:51:30;9.30;99.90
10583;DHT22;33679;51.218;6.786;2024-02-23T02:54:02;9.30;99.90
10583;DHT22;33679;51.218;6.786;2024-02-23T02:56:35;9.20;99.90
10583;DHT22;33679;51.218;6.786;2024-02-23T02:59:07;9.20;99.90
10583;DHT22;33679;51.218;6.786;2024-02-23T03:01:41;9.30;99.90
10583;DHT22;33679;51.218;6.786;2024-02-23T03:04:14;9.30;99.90
10583;DHT22;33679;51.218;6.786;2024-02-23T03:06:47;9.20;99.90
10583;DHT22;33679;51.218;6.786;2024-02-23T03:09:20;9.20;99.90
10583;DHT22;33679;51.218;6.786;2024-02-23T03:11:54;9.20;99.90
10583;DHT22;33679;51.218;6.786;2024-02-23T03:14:28;9.20;99.90
10583;DHT22;33679;51.218;6.786;2024-02-23T03:17:02;9.20;99.90
10583;DHT22;33679;51.218;6.786;2024-02-23T03:19:35;9.20;99.90
10583;DHT22;33679;51.218;6.786;2024-02-23T03:22:11;9.20;99.90
10583;DHT22;33679;51.218;6.786;2024-02-23T03:24:43;9.20;99.90
10583;DHT22;33679;51.218;6.786;2024-02-23T03:27:28;9.20;99.90
10583;DHT22;33679;51.218;6.786;2024-02-23T03:30:02;9.20;99.90
10583;DHT22;33679;51.218;6.786;2024-02-23T03:32:37;9.20;99.90
10583;DHT22;33679;51.218;6.786;2024-02-23T03:35:09;9.30;99.90
10583;DHT22;33679;51.218;6.786;2024-02-23T03:37:42;9.30;99.90
10583;DHT22;33679;51.218;6.786;2024-02-23T03:40:17;9.20;99.90
10583;DHT22;33679;51.218;6.786;2024-02-23T03:42:50;9.20;99.90
10583;DHT22;33679;51.218;6.786;2024-02-23T03:45:22;9.20;99.90
10583;DHT22;33679;51.218;6.786;2024-02-23T03:47:56;9.20;99.90
10583;DHT22;33679;51.218;6.786;2024-02-23T03:50:28;9.30;99.90
10583;DHT22;33679;51.218;6.786;2024-02-23T03:53:01;9.20;99.90
10583;DHT22;33679;51.218;6.786;2024-02-23T03:55:33;9.10;99.90
10583;DHT22;33679;51.218;6.786;2024-02-23T03:58:06;9.20;99.90
10583;DHT22;33679;51.218;6.786;2024-02-23T04:00:38;9.20;99.90
10583;DHT22;33679;51.218;6.786;2024-02-23T04:03:12;9.20;99.90
10583;DHT22;33679;51.218;6.786;2024-02-23T04:05:45;9.30;99.90
10583;DHT22;33679;51.218;6.786;2024-02-23T04:08:19;9.20;99.90
10583;DHT22;33679;51.218;6.786;2024-02-23T04:10:52;9.20;99.90
10583;DHT22;33679;51.218;6.786;2024-02-23T04:13:25;9.30;99.90
10583;DHT22;33679;51.218;6.786;2024-02-23T04:16:00;9.30;99.90
10583;DHT22;33679;51.218;6.786;2024-02-23T04:18:36;9.30;99.90
10583;DHT22;33679;51.218;6.786;2024-02-23T04:21:11;9.30;99.90
10583;DHT22;33679;51.218;6.786;2024-02-23T04:23:43;9.30;99.90
10583;DHT22;33679;51.218;6.786;2024-02-23T04:26:16;9.30;99.90
10583;DHT22;33679;51.218;6.786;2024-02-23T04:28:52;9.30;99.90
10583;DHT22;33679;51.218;6.786;2024-02-23T04:31:24;9.30;99.90
10583;DHT22;33679;51.218;6.786;2024-02-23T04:33:58;9.40;99.90
10583;DHT22;33679;51.218;6.786;2024-02-23T04:36:30;9.40;99.90
10583;DHT22;33679;51.218;6.786;2024-02-23T04:39:03;9.40;99.90
10583;DHT22;33679;51.218;6.786;2024-02-23T04:41:35;9.40;99.90
10583;DHT22;33679;51.218;6.786;2024-02-23T04:44:07;9.50;99.90
10583;DHT22;33679;51.218;6.786;2024-02-23T04:46:40;9.50;99.90
10583;DHT22;33679;51.218;6.786;2024-02-23T04:49:13;9.60;99.90
10583;DHT22;33679;51.218;6.786;2024-02-23T04:51:46;9.60;99.90
10583;DHT22;33679;51.218;6.786;2024-02-23T04:54:18;9.70;99.90
10583;DHT22;33679;51.218;6.786;2024-02-23T04:56:50;9.70;99.90
10583;DHT22;33679;51.218;6.786;2024-02-23T04:59:23;9.70;99.90
10583;DHT22;33679;51.218;6.786;2024-02-23T05:01:55;9.70;99.90
10583;DHT22;33679;51.218;6.786;2024-02-23T05:04:28;9.80;99.90
10583;DHT22;33679;51.218;6.786;2024-02-23T05:07:01;9.80;99.90
10583;DHT22;33679;51.218;6.786;2024-02-23T05:09:33;9.80;99.90
10583;DHT22;33679;51.218;6.786;2024-02-23T05:12:06;9.80;99.90
10583;DHT22;33679;51.218;6.786;2024-02-23T05:14:38;9.90;99.90
10583;DHT22;33679;51.218;6.786;2024-02-23T05:17:11;10.00;99.90
10583;DHT22;33679;51.218;6.786;2024-02-23T05:19:46;10.00;99.90
10583;DHT22;33679;51.218;6.786;2024-02-23T05:22:19;10.00;99.90
10583;DHT22;33679;51.218;6.786;2024-02-23T05:24:51;10.00;99.90
10583;DHT22;33679;51.218;6.786;2024-02-23T05:27:23;10.00;99.90
10583;DHT22;33679;51.218;6.786;2024-02-23T05:29:56;10.00;99.90
10583;DHT22;33679;51.218;6.786;2024-02-23T05:32:28;10.00;99.90
10583;DHT22;33679;51.218;6.786;2024-02-23T05:35:05;10.00;99.90
10583;DHT22;33679;51.218;6.786;2024-02-23T05:37:40;10.00;99.90
10583;DHT22;33679;51.218;6.786;2024-02-23T05:40:12;10.10;99.90
10583;DHT22;33679;51.218;6.786;2024-02-23T05:42:46;10.10;99.90
10583;DHT22;33679;51.218;6.786;2024-02-23T05:45:18;10.10;99.90
10583;DHT22;33679;51.218;6.786;2024-02-23T05:47:51;10.10;99.90
10583;DHT22;33679;51.218;6.786;2024-02-23T05:50:25;10.10;99.90
10583;DHT22;33679;51.218;6.786;2024-02-23T05:52:58;10.10;99.90
10583;DHT22;33679;51.218;6.786;2024-02-23T05:55:30;10.20;99.90
10583;DHT22;33679;51.218;6.786;2024-02-23T05:58:02;10.20;99.90
10583;DHT22;33679;51.218;6.786;2024-02-23T06:00:36;10.20;99.90
10583;DHT22;33679;51.218;6.786;2024-02-23T06:03:09;10.20;99.90
10583;DHT22;33679;51.218;6.786;2024-02-23T06:05:43;10.20;99.90
10583;DHT22;33679;51.218;6.786;2024-02-23T06:08:18;10.20;99.90
10583;DHT22;33679;51.218;6.786;2024-02-23T06:10:51;10.20;99.90
10583;DHT22;33679;51.218;6.786;2024-02-23T06:13:23;10.20;99.90
10583;DHT22;33679;51.218;6.786;2024-02-23T06:15:58;10.30;99.90
10583;DHT22;33679;51.218;6.786;2024-02-23T06:18:31;10.30;99.90
10583;DHT22;33679;51.218;6.786;2024-02-23T06:21:16;10.30;99.90
10583;DHT22;33679;51.218;6.786;2024-02-23T06:23:50;10.30;99.90
10583;DHT22;33679;51.218;6.786;2024-02-23T06:26:22;10.30;99.90
10583;DHT22;33679;51.218;6.786;2024-02-23T06:28:55;10.30;99.90
10583;DHT22;33679;51.218;6.786;2024-02-23T06:31:27;10.30;99.90
10583;DHT22;33679;51.218;6.786;2024-02-23T06:33:59;10.30;99.90
10583;DHT22;33679;51.218;6.786;2024-02-23T06:36:33;10.30;99.90
10583;DHT22;33679;51.218;6.786;2024-02-23T06:39:05;10.30;99.90
10583;DHT22;33679;51.218;6.786;2024-02-23T06:41:39;10.30;99.90
10583;DHT22;33679;51.218;6.786;2024-02-23T06:44:13;10.40;99.90
10583;DHT22;33679;51.218;6.786;2024-02-23T06:46:46;10.40;99.90
10583;DHT22;33679;51.218;6.786;2024-02-23T06:49:19;10.50;99.90
10583;DHT22;33679;51.218;6.786;2024-02-23T06:51:53;10.50;99.90
10583;DHT22;33679;51.218;6.786;2024-02-23T06:54:25;10.60;99.90
10583;DHT22;33679;51.218;6.786;2024-02-23T06:56:57;10.60;99.90
10583;DHT22;33679;51.218;6.786;2024-02-23T06:59:30;10.60;99.90
10583;DHT22;33679;51.218;6.786;2024-02-23T07:02:03;10.50;99.90
10583;DHT22;33679;51.218;6.786;2024-02-23T07:04:39;10.50;99.90
10583;DHT22;33679;51.218;6.786;2024-02-23T07:07:15;10.50;99.90
10583;DHT22;33679;51.218;6.786;2024-02-23T07:09:49;10.50;99.90
10583;DHT22;33679;51.218;6.786;2024-02-23T07:12:25;10.50;99.90
10583;DHT22;33679;51.218;6.786;2024-02-23T07:14:59;10.50;99.90
10583;DHT22;33679;51.218;6.786;2024-02-23T07:17:37;10.50;99.90
10583;DHT22;33679;51.218;6.786;2024-02-23T07:20:10;10.50;99.90
10583;DHT22;33679;51.218;6.786;2024-02-23T07:22:45;10.40;99.90
10583;DHT22;33679;51.218;6.786;2024-02-23T07:25:17;10.30;99.90
10583;DHT22;33679;51.218;6.786;2024-02-23T07:27:51;10.30;99.90
10583;DHT22;33679;51.218;6.786;2024-02-23T07:30:23;10.30;99.90
10583;DHT22;33679;51.218;6.786;2024-02-23T07:32:56;10.40;99.90
10583;DHT22;33679;51.218;6.786;2024-02-23T07:35:28;10.40;99.90
10583;DHT22;33679;51.218;6.786;2024-02-23T07:38:02;10.40;99.90
10583;DHT22;33679;51.218;6.786;2024-02-23T07:40:36;10.50;99.90
10583;DHT22;33679;51.218;6.786;2024-02-23T07:43:08;10.50;99.90
10583;DHT22;33679;51.218;6.786;2024-02-23T07:45:41;10.50;99.90
10583;DHT22;33679;51.218;6.786;2024-02-23T07:48:14;10.60;99.90
10583;DHT22;33679;51.218;6.786;2024-02-23T07:50:47;10.60;99.90
10583;DHT22;33679;51.218;6.786;2024-02-23T07:53:20;10.60;99.90
10583;DHT22;33679;51.218;6.786;2024-02-23T07:55:53;10.60;99.90
10583;DHT22;33679;51.218;6.786;2024-02-23T07:58:28;10.60;99.90
10583;DHT22;33679;51.218;6.786;2024-02-23T08:01:03;10.60;99.90
10583;DHT22;33679;51.218;6.786;2024-02-23T08:03:36;10.70;99.90
10583;DHT22;33679;51.218;6.786;2024-02-23T08:06:08;10.70;99.90
10583;DHT22;33679;51.218;6.786;2024-02-23T08:08:43;10.80;99.90
10583;DHT22;33679;51.218;6.786;2024-02-23T08:11:16;10.80;99.90
10583;DHT22;33679;51.218;6.786;2024-02-23T08:13:49;10.80;99.90
10583;DHT22;33679;51.218;6.786;2024-02-23T08:16:21;10.90;99.90
10583;DHT22;33679;51.218;6.786;2024-02-23T08:18:53;11.00;99.90
10583;DHT22;33679;51.218;6.786;2024-02-23T08:21:26;11.00;99.90
10583;DHT22;33679;51.218;6.786;2024-02-23T08:24:01;11.00;99.90
10583;DHT22;33679;51.218;6.786;2024-02-23T08:26:34;11.10;99.90
10583;DHT22;33679;51.218;6.786;2024-02-23T08:29:11;11.00;99.90
10583;DHT22;33679;51.218;6.786;2024-02-23T08:31:43;11.00;99.90
10583;DHT22;33679;51.218;6.786;2024-02-23T08:34:16;11.10;99.90
10583;DHT22;33679;51.218;6.786;2024-02-23T08:36:48;11.10;99.90
10583;DHT22;33679;51.218;6.786;2024-02-23T08:39:22;11.20;99.90
10583;DHT22;33679;51.218;6.786;2024-02-23T08:41:54;11.20;99.90
10583;DHT22;33679;51.218;6.786;2024-02-23T08:44:27;11.30;99.90
10583;DHT22;33679;51.218;6.786;2024-02-23T08:46:59;11.30;99.90
10583;DHT22;33679;51.218;6.786;2024-02-23T08:49:32;11.30;99.90
10583;DHT22;33679;51.218;6.786;2024-02-23T08:52:05;11.30;99.90
10583;DHT22;33679;51.218;6.786;2024-02-23T08:54:39;11.40;99.90
10583;DHT22;33679;51.218;6.786;2024-02-23T08:57:11;11.40;99.90
10583;DHT22;33679;51.218;6.786;2024-02-23T08:59:48;11.40;99.90
10583;DHT22;33679;51.218;6.786;2024-02-23T09:02:20;11.40;99.90
10583;DHT22;33679;51.218;6.786;2024-02-23T09:04:53;11.50;99.90
10583;DHT22;33679;51.218;6.786;2024-02-23T09:07:25;11.50;99.90
10583;DHT22;33679;51.218;6.786;2024-02-23T09:10:02;11.50;99.90
10583;DHT22;33679;51.218;6.786;2024-02-23T09:12:35;11.60;99.90
10583;DHT22;33679;51.218;6.786;2024-02-23T09:15:08;11.50;99.90
10583;DHT22;33679;51.218;6.786;2024-02-23T09:17:43;11.50;99.90
10583;DHT22;33679;51.218;6.786;2024-02-23T09:20:11;11.60;99.90
10583;DHT22;33679;51.218;6.786;2024-02-23T09:22:44;11.60;99.90
10583;DHT22;33679;51.218;6.786;2024-02-23T09:25:18;11.70;99.90
10583;DHT22;33679;51.218;6.786;2024-02-23T09:27:50;11.70;99.90
10583;DHT22;33679;51.218;6.786;2024-02-23T09:30:23;11.70;99.90
10583;DHT22;33679;51.218;6.786;2024-02-23T09:32:56;11.80;99.90
10583;DHT22;33679;51.218;6.786;2024-02-23T09:35:32;11.80;99.90
10583;DHT22;33679;51.218;6.786;2024-02-23T09:38:04;11.90;99.90
10583;DHT22;33679;51.218;6.786;2024-02-23T09:40:41;12.00;99.90
10583;DHT22;33679;51.218;6.786;2024-02-23T09:43:14;12.00;99.90
10583;DHT22;33679;51.218;6.786;2024-02-23T09:45:47;12.10;99.90
10583;DHT22;33679;51.218;6.786;2024-02-23T09:48:23;12.10;99.90
10583;DHT22;33679;51.218;6.786;2024-02-23T09:50:58;12.10;99.90
10583;DHT22;33679;51.218;6.786;2024-02-23T09:53:31;12.10;99.90
10583;DHT22;33679;51.218;6.786;2024-02-23T09:56:05;12.10;99.90
10583;DHT22;33679;51.218;6.786;2024-02-23T09:58:39;12.10;99.90
10583;DHT22;33679;51.218;6.786;2024-02-23T10:01:16;12.20;99.90
10583;DHT22;33679;51.218;6.786;2024-02-23T10:03:54;12.20;99.90
10583;DHT22;33679;51.218;6.786;2024-02-23T10:06:28;12.20;99.90
10583;DHT22;33679;51.218;6.786;2024-02-23T10:09:00;12.20;99.90
10583;DHT22;33679;51.218;6.786;2024-02-23T10:11:38;12.20;99.90
10583;DHT22;33679;51.218;6.786;2024-02-23T10:14:11;12.20;99.90
10583;DHT22;33679;51.218;6.786;2024-02-23T10:16:43;12.30;99.90
10583;DHT22;33679;51.218;6.786;2024-02-23T10:19:16;12.30;99.90
10583;DHT22;33679;51.218;6.786;2024-02-23T10:21:49;12.40;99.90
10583;DHT22;33679;51.218;6.786;2024-02-23T10:24:23;12.50;99.90
10583;DHT22;33679;51.218;6.786;2024-02-23T10:26:57;12.50;99.90
10583;DHT22;33679;51.218;6.786;2024-02-23T10:29:31;12.50;99.90
10583;DHT22;33679;51.218;6.786;2024-02-23T10:32:05;12.60;99.90
10583;DHT22;33679;51.218;6.786;2024-02-23T10:34:39;12.60;99.90
10583;DHT22;33679;51.218;6.786;2024-02-23T10:37:12;12.70;99.90
10583;DHT22;33679;51.218;6.786;2024-02-23T10:39:46;12.70;99.90
10583;DHT22;33679;51.218;6.786;2024-02-23T10:42:23;12.70;99.90
10583;DHT22;33679;51.218;6.786;2024-02-23T10:44:57;12.70;99.90
10583;DHT22;33679;51.218;6.786;2024-02-23T10:47:34;12.70;99.90
10583;DHT22;33679;51.218;6.786;2024-02-23T10:50:09;12.70;99.90
10583;DHT22;33679;51.218;6.786;2024-02-23T10:52:45;12.60;99.90
10583;DHT22;33679;51.218;6.786;2024-02-23T10:55:18;12.50;99.90
10583;DHT22;33679;51.218;6.786;2024-02-23T10:57:55;12.50;99.90
10583;DHT22;33679;51.218;6.786;2024-02-23T11:00:28;12.50;99.90
10583;DHT22;33679;51.218;6.786;2024-02-23T11:03:03;12.60;99.90
10583;DHT22;33679;51.218;6.786;2024-02-23T11:05:37;12.60;99.90
10583;DHT22;33679;51.218;6.786;2024-02-23T11:08:09;12.60;99.90
10583;DHT22;33679;51.218;6.786;2024-02-23T11:10:42;12.60;99.90
10583;DHT22;33679;51.218;6.786;2024-02-23T11:13:16;12.60;99.90
10583;DHT22;33679;51.218;6.786;2024-02-23T11:15:49;12.50;99.90
10583;DHT22;33679;51.218;6.786;2024-02-23T11:18:21;12.50;99.90
10583;DHT22;33679;51.218;6.786;2024-02-23T11:20:55;12.50;99.90
10583;DHT22;33679;51.218;6.786;2024-02-23T11:23:39;12.40;99.90
10583;DHT22;33679;51.218;6.786;2024-02-23T11:26:14;12.40;99.90
10583;DHT22;33679;51.218;6.786;2024-02-23T11:28:50;12.50;99.90
10583;DHT22;33679;51.218;6.786;2024-02-23T11:31:29;12.50;99.90
10583;DHT22;33679;51.218;6.786;2024-02-23T11:34:08;12.50;99.90
10583;DHT22;33679;51.218;6.786;2024-02-23T11:36:41;12.60;99.90
10583;DHT22;33679;51.218;6.786;2024-02-23T11:39:14;12.60;99.90
10583;DHT22;33679;51.218;6.786;2024-02-23T11:41:48;12.60;99.90
10583;DHT22;33679;51.218;6.786;2024-02-23T11:44:23;12.60;99.90
10583;DHT22;33679;51.218;6.786;2024-02-23T11:46:55;12.70;99.90
10583;DHT22;33679;51.218;6.786;2024-02-23T11:49:28;12.70;99.90
10583;DHT22;33679;51.218;6.786;2024-02-23T11:52:01;12.80;99.90
10583;DHT22;33679;51.218;6.786;2024-02-23T11:54:33;12.80;99.90
10583;DHT22;33679;51.218;6.786;2024-02-23T11:57:07;12.80;99.90
10583;DHT22;33679;51.218;6.786;2024-02-23T11:59:41;12.90;99.90
10583;DHT22;33679;51.218;6.786;2024-02-23T12:02:14;12.90;99.90
10583;DHT22;33679;51.218;6.786;2024-02-23T12:04:46;12.90;99.90
10583;DHT22;33679;51.218;6.786;2024-02-23T12:07:19;12.90;99.90
10583;DHT22;33679;51.218;6.786;2024-02-23T12:09:53;13.00;99.90
10583;DHT22;33679;51.218;6.786;2024-02-23T12:12:25;13.10;99.90
10583;DHT22;33679;51.218;6.786;2024-02-23T12:15:02;13.10;99.90
10583;DHT22;33679;51.218;6.786;2024-02-23T12:17:36;13.20;99.90
10583;DHT22;33679;51.218;6.786;2024-02-23T12:20:11;13.20;99.90
10583;DHT22;33679;51.218;6.786;2024-02-23T12:22:45;13.30;99.90
10583;DHT22;33679;51.218;6.786;2024-02-23T12:25:19;13.30;99.90
10583;DHT22;33679;51.218;6.786;2024-02-23T12:27:56;13.20;99.90
10583;DHT22;33679;51.218;6.786;2024-02-23T12:30:31;13.20;99.90
10583;DHT22;33679;51.218;6.786;2024-02-23T12:33:06;13.20;99.90
10583;DHT22;33679;51.218;6.786;2024-02-23T12:35:40;13.20;99.90
10583;DHT22;33679;51.218;6.786;2024-02-23T12:38:12;13.20;99.90
10583;DHT22;33679;51.218;6.786;2024-02-23T12:40:47;13.20;99.90
10583;DHT22;33679;51.218;6.786;2024-02-23T12:43:23;13.10;99.90
10583;DHT22;33679;51.218;6.786;2024-02-23T12:45:57;13.10;99.90
10583;DHT22;33679;51.218;6.786;2024-02-23T12:48:30;13.10;99.90
10583;DHT22;33679;51.218;6.786;2024-02-23T12:51:24;13.00;99.90
10583;DHT22;33679;51.218;6.786;2024-02-23T12:53:57;13.10;99.90
10583;DHT22;33679;51.218;6.786;2024-02-23T12:56:32;13.10;99.90
10583;DHT22;33679;51.218;6.786;2024-02-23T12:59:08;13.10;99.90
10583;DHT22;33679;51.218;6.786;2024-02-23T13:01:57;13.10;99.90
10583;DHT22;33679;51.218;6.786;2024-02-23T13:04:32;13.20;99.90
10583;DHT22;33679;51.218;6.786;2024-02-23T13:07:06;13.20;99.90
10583;DHT22;33679;51.218;6.786;2024-02-23T13:09:47;13.30;99.90
10583;DHT22;33679;51.218;6.786;2024-02-23T13:12:20;13.40;99.90
10583;DHT22;33679;51.218;6.786;2024-02-23T13:14:57;13.40;99.90
10583;DHT22;33679;51.218;6.786;2024-02-23T13:17:31;13.40;99.90
10583;DHT22;33679;51.218;6.786;2024-02-23T13:20:06;13.50;99.90
10583;DHT22;33679;51.218;6.786;2024-02-23T13:22:43;13.50;99.90
10583;DHT22;33679;51.218;6.786;2024-02-23T13:25:16;13.60;99.90
10583;DHT22;33679;51.218;6.786;2024-02-23T13:27:50;13.60;99.90
10583;DHT22;33679;51.218;6.786;2024-02-23T13:30:22;13.70;99.90
10583;DHT22;33679;51.218;6.786;2024-02-23T13:32:56;13.70;99.90
10583;DHT22;33679;51.218;6.786;2024-02-23T13:35:29;13.70;99.90
10583;DHT22;33679;51.218;6.786;2024-02-23T13:38:01;13.80;99.90
10583;DHT22;33679;51.218;6.786;2024-02-23T13:40:35;13.80;99.90
10583;DHT22;33679;51.218;6.786;2024-02-23T13:43:09;13.80;99.90
10583;DHT22;33679;51.218;6.786;2024-02-23T13:45:50;13.70;99.90
10583;DHT22;33679;51.218;6.786;2024-02-23T13:48:24;13.70;99.90
10583;DHT22;33679;51.218;6.786;2024-02-23T13:50:57;13.70;99.90
10583;DHT22;33679;51.218;6.786;2024-02-23T13:53:34;13.70;99.90
10583;DHT22;33679;51.218;6.786;2024-02-23T13:56:08;13.70;99.90
10583;DHT22;33679;51.218;6.786;2024-02-23T13:58:41;13.80;99.90
10583;DHT22;33679;51.218;6.786;2024-02-23T14:01:14;13.80;99.90
10583;DHT22;33679;51.218;6.786;2024-02-23T14:03:48;13.90;99.90
10583;DHT22;33679;51.218;6.786;2024-02-23T14:06:20;13.90;99.90
10583;DHT22;33679;51.218;6.786;2024-02-23T14:08:54;13.90;99.90
10583;DHT22;33679;51.218;6.786;2024-02-23T14:11:27;13.80;99.90
10583;DHT22;33679;51.218;6.786;2024-02-23T14:14:00;13.80;99.90
10583;DHT22;33679;51.218;6.786;2024-02-23T14:16:33;13.80;99.90
10583;DHT22;33679;51.218;6.786;2024-02-23T14:19:07;13.70;99.90
10583;DHT22;33679;51.218;6.786;2024-02-23T14:21:40;13.70;99.90
10583;DHT22;33679;51.218;6.786;2024-02-23T14:24:13;13.70;99.90
10583;DHT22;33679;51.218;6.786;2024-02-23T14:26:45;13.70;99.90
10583;DHT22;33679;51.218;6.786;2024-02-23T14:29:19;13.70;99.90
10583;DHT22;33679;51.218;6.786;2024-02-23T14:31:51;13.70;99.90
10583;DHT22;33679;51.218;6.786;2024-02-23T14:34:25;13.60;99.90
10583;DHT22;33679;51.218;6.786;2024-02-23T14:36:58;13.70;99.90
10583;DHT22;33679;51.218;6.786;2024-02-23T14:39:33;13.70;99.90
10583;DHT22;33679;51.218;6.786;2024-02-23T14:42:06;13.60;99.90
10583;DHT22;33679;51.218;6.786;2024-02-23T14:44:40;13.60;99.90
10583;DHT22;33679;51.218;6.786;2024-02-23T14:47:12;13.70;99.90
10583;DHT22;33679;51.218;6.786;2024-02-23T14:49:47;13.70;99.90
10583;DHT22;33679;51.218;6.786;2024-02-23T14:52:19;13.80;99.90
10583;DHT22;33679;51.218;6.786;2024-02-23T14:54:51;13.80;99.90
10583;DHT22;33679;51.218;6.786;2024-02-23T14:57:24;13.80;99.90
10583;DHT22;33679;51.218;6.786;2024-02-23T14:59:57;13.80;99.90
10583;DHT22;33679;51.218;6.786;2024-02-23T15:02:30;13.80;99.90
10583;DHT22;33679;51.218;6.786;2024-02-23T15:05:04;13.80;99.90
10583;DHT22;33679;51.218;6.786;2024-02-23T15:07:38;13.80;99.90
10583;DHT22;33679;51.218;6.786;2024-02-23T15:10:11;13.70;99.90
10583;DHT22;33679;51.218;6.786;2024-02-23T15:12:44;13.70;99.90
10583;DHT22;33679;51.218;6.786;2024-02-23T15:15:17;13.60;99.90
10583;DHT22;33679;51.218;6.786;2024-02-23T15:17:50;13.60;99.90
10583;DHT22;33679;51.218;6.786;2024-02-23T15:20:21;13.60;99.90
10583;DHT22;33679;51.218;6.786;2024-02-23T15:22:54;13.60;99.90
10583;DHT22;33679;51.218;6.786;2024-02-23T15:25:28;13.60;99.90
10583;DHT22;33679;51.218;6.786;2024-02-23T15:28:03;13.60;99.90
10583;DHT22;33679;51.218;6.786;2024-02-23T15:30:35;13.60;99.90
10583;DHT22;33679;51.218;6.786;2024-02-23T15:33:07;13.50;99.90
10583;DHT22;33679;51.218;6.786;2024-02-23T15:35:42;13.50;99.90
10583;DHT22;33679;51.218;6.786;2024-02-23T15:38:14;13.60;99.90
10583;DHT22;33679;51.218;6.786;2024-02-23T15:40:49;13.50;99.90
10583;DHT22;33679;51.218;6.786;2024-02-23T15:43:22;13.50;99.90
10583;DHT22;33679;51.218;6.786;2024-02-23T15:45:54;13.50;99.90
10583;DHT22;33679;51.218;6.786;2024-02-23T15:48:26;13.50;99.90
10583;DHT22;33679;51.218;6.786;2024-02-23T15:51:00;13.40;99.90
10583;DHT22;33679;51.218;6.786;2024-02-23T15:53:32;13.40;99.90
10583;DHT22;33679;51.218;6.786;2024-02-23T15:56:07;13.30;99.90
10583;DHT22;33679;51.218;6.786;2024-02-23T15:58:39;13.30;99.90
10583;DHT22;33679;51.218;6.786;2024-02-23T16:01:11;13.20;99.90
10583;DHT22;33679;51.218;6.786;2024-02-23T16:03:44;13.10;99.90
10583;DHT22;33679;51.218;6.786;2024-02-23T16:06:18;13.10;99.90
10583;DHT22;33679;51.218;6.786;2024-02-23T16:08:50;13.00;99.90
10583;DHT22;33679;51.218;6.786;2024-02-23T16:11:23;12.90;99.90
10583;DHT22;33679;51.218;6.786;2024-02-23T16:13:59;12.80;99.90